createdAt,value
2019-05-15T06:00:31.718Z,53.64
2019-05-15T06:01:31.641Z,54.25
2019-05-15T06:02:43.856Z,53.33
2019-05-15T06:03:32.655Z,53.54
2019-05-15T06:04:31.643Z,52.18
2019-05-15T06:05:31.606Z,51.36
2019-05-15T06:06:31.599Z,51.64
2019-05-15T06:07:31.574Z,52.36
2019-05-15T06:09:48.634Z,51.13
2019-05-15T06:10:49.516Z,51.10
2019-05-15T06:11:48.843Z,50.29
2019-05-15T06:12:49.042Z,51.10
2019-05-15T06:13:52.383Z,50.80
2019-05-15T06:14:48.515Z,50.59
2019-05-15T06:15:48.765Z,51.18
2019-05-15T06:16:48.309Z,50.88
2019-05-15T06:17:48.188Z,50.67
2019-05-15T06:18:49.138Z,50.57
2019-05-15T06:19:48.214Z,50.98
2019-05-15T06:20:49.365Z,49.75
2019-05-15T06:21:56.726Z,49.85
2019-05-15T06:22:48.781Z,49.52
2019-05-15T06:23:54.529Z,50.65
2019-05-15T06:24:48.700Z,50.24
2019-05-15T06:25:48.586Z,51.37
2019-05-15T06:26:48.314Z,51.24
2019-05-15T06:27:48.126Z,49.93
2019-05-15T06:28:49.079Z,50.52
2019-05-15T06:29:48.504Z,50.42
2019-05-15T06:30:48.642Z,49.71
2019-05-15T06:31:48.443Z,49.60
2019-05-15T06:33:01.970Z,50.30
2019-05-15T06:33:49.038Z,49.68
2019-05-15T06:34:48.588Z,49.79
2019-05-15T06:35:48.846Z,50.09
2019-05-15T06:36:48.553Z,50.09
2019-05-15T06:37:48.452Z,50.30
2019-05-15T06:38:48.422Z,49.48
2019-05-15T06:39:48.118Z,49.68
2019-05-15T06:40:48.592Z,49.55
2019-05-15T06:41:48.240Z,49.76
2019-05-15T06:42:48.406Z,49.96
2019-05-15T06:43:48.328Z,48.13
2019-05-15T06:44:48.363Z,48.23
2019-05-15T06:45:48.679Z,48.33
2019-05-15T06:46:48.349Z,48.86
2019-05-15T06:47:48.283Z,49.46
2019-05-15T06:48:48.637Z,49.15
2019-05-15T06:49:48.663Z,48.23
2019-05-15T06:50:48.926Z,48.23
2019-05-15T06:51:48.711Z,48.43
2019-05-15T06:52:48.629Z,48.94
2019-05-15T06:53:49.215Z,47.92
2019-05-15T06:54:48.541Z,47.72
2019-05-15T06:55:48.592Z,47.20
2019-05-15T06:56:49.251Z,47.80
2019-05-15T06:57:48.474Z,47.49
2019-05-15T06:58:48.720Z,47.19
2019-05-15T06:59:48.383Z,46.98
2019-05-15T07:00:48.814Z,46.98
2019-05-15T07:01:48.114Z,46.78
2019-05-15T07:02:48.691Z,47.49
2019-05-15T07:03:48.407Z,47.08
2019-05-15T07:04:48.789Z,47.60
2019-05-15T07:05:50.305Z,47.57
2019-05-15T07:06:48.964Z,47.37
2019-05-15T07:07:48.858Z,47.67
2019-05-15T07:08:49.605Z,48.18
2019-05-15T07:09:48.647Z,46.66
2019-05-15T07:10:48.680Z,46.96
2019-05-15T07:11:48.262Z,47.47
2019-05-15T07:12:50.994Z,46.75
2019-05-15T07:13:48.743Z,47.37
2019-05-15T07:14:48.744Z,47.78
2019-05-15T07:15:49.459Z,47.57
2019-05-15T07:16:48.790Z,47.27
2019-05-15T07:17:48.421Z,47.78
2019-05-15T07:18:48.499Z,47.88
2019-05-15T07:19:48.504Z,47.16
2019-05-15T07:20:48.838Z,47.34
2019-05-15T07:21:48.711Z,47.04
2019-05-15T07:22:49.113Z,46.94
2019-05-15T07:23:49.568Z,45.81
2019-05-15T07:24:47.820Z,44.67
2019-05-15T07:25:49.858Z,45.89
2019-05-15T07:26:48.375Z,45.79
2019-05-15T07:27:47.895Z,44.37
2019-05-15T07:28:48.568Z,44.26
2019-05-15T07:29:48.742Z,44.57
2019-05-15T07:30:49.498Z,43.35
2019-05-15T07:31:47.793Z,43.14
2019-05-15T07:32:48.717Z,42.43
2019-05-15T07:33:49.108Z,42.83
2019-05-15T07:34:48.392Z,43.35
2019-05-15T07:35:49.393Z,43.04
2019-05-15T07:36:49.192Z,42.71
2019-05-15T07:37:47.875Z,42.82
2019-05-15T07:38:48.512Z,43.23
2019-05-15T07:39:48.758Z,43.02
2019-05-15T07:40:55.483Z,42.30
2019-05-15T07:41:48.452Z,42.83
2019-05-15T07:42:48.994Z,41.89
2019-05-15T07:43:49.217Z,42.41
2019-05-15T07:44:48.186Z,41.59
2019-05-15T07:45:53.786Z,41.69
2019-05-15T07:46:48.848Z,41.67
2019-05-15T07:47:48.978Z,41.57
2019-05-15T07:48:49.107Z,41.57
2019-05-15T07:49:49.105Z,40.64
2019-05-15T07:50:49.330Z,38.21
2019-05-15T07:51:48.839Z,38.09
2019-05-15T07:52:48.540Z,39.13
2019-05-15T07:53:49.105Z,38.19
2019-05-15T07:54:48.795Z,38.19
2019-05-15T07:55:49.383Z,36.56
2019-05-15T07:56:48.782Z,37.09
2019-05-15T07:57:49.444Z,35.05
2019-05-15T07:58:52.105Z,34.63
2019-05-15T07:59:48.075Z,34.95
2019-05-15T08:00:49.071Z,34.34
2019-05-15T08:01:48.846Z,35.24
2019-05-15T08:02:48.058Z,35.36
2019-05-15T08:03:56.464Z,34.93
2019-05-15T08:04:48.246Z,35.66
2019-05-15T08:05:56.055Z,34.32
2019-05-15T08:06:49.031Z,35.64
2019-05-15T08:07:48.778Z,35.54
2019-05-15T08:08:48.575Z,34.00
2019-05-15T08:09:48.598Z,35.53
2019-05-15T08:10:49.029Z,35.42
2019-05-15T08:11:48.669Z,35.63
2019-05-15T08:12:49.270Z,35.63
2019-05-15T08:13:48.627Z,35.53
2019-05-15T08:14:48.301Z,34.09
2019-05-15T08:15:48.727Z,34.70
2019-05-15T08:16:48.550Z,34.90
2019-05-15T08:18:00.369Z,35.21
2019-05-15T08:18:48.430Z,33.87
2019-05-15T08:19:48.538Z,32.97
2019-05-15T08:20:48.632Z,32.95
2019-05-15T08:21:51.414Z,33.46
2019-05-15T08:22:48.924Z,34.99
2019-05-15T08:23:48.462Z,35.29
2019-05-15T08:24:48.438Z,34.68
2019-05-15T08:25:48.547Z,32.44
2019-05-15T08:26:48.502Z,32.53
2019-05-15T08:27:48.439Z,32.93
2019-05-15T08:28:48.505Z,33.04
2019-05-15T08:29:48.568Z,33.04
2019-05-15T08:30:49.016Z,32.63
2019-05-15T08:31:48.217Z,32.53
2019-05-15T08:32:49.209Z,32.12
2019-05-15T08:33:48.238Z,32.23
2019-05-15T08:34:48.062Z,31.21
2019-05-15T08:35:51.210Z,31.21
2019-05-15T08:36:48.230Z,31.10
2019-05-15T08:37:48.869Z,30.19
2019-05-15T08:38:48.433Z,31.21
2019-05-15T08:39:48.477Z,29.99
2019-05-15T08:40:48.595Z,29.58
2019-05-15T08:41:48.366Z,29.60
2019-05-15T08:42:54.485Z,29.49
2019-05-15T08:43:48.670Z,28.99
2019-05-15T08:44:46.209Z,29.68
2019-05-15T08:45:46.192Z,29.07
2019-05-15T08:46:47.978Z,29.58
2019-05-15T08:47:48.963Z,30.19
2019-05-15T08:48:46.160Z,31.62
2019-05-15T08:49:48.351Z,29.79
2019-05-15T08:50:48.386Z,28.97
2019-05-15T08:51:48.486Z,29.17
2019-05-15T08:52:48.528Z,29.16
2019-05-15T08:53:48.328Z,29.68
2019-05-15T08:54:48.543Z,29.06
2019-05-15T08:55:48.122Z,28.97
2019-05-15T08:56:48.404Z,28.67
2019-05-15T08:57:54.135Z,28.26
2019-05-15T08:58:48.608Z,29.26
2019-05-15T08:59:46.107Z,29.07
2019-05-15T09:00:46.138Z,29.06
2019-05-15T09:01:46.022Z,29.97
2019-05-15T09:02:46.007Z,28.36
2019-05-15T09:03:48.665Z,29.38
2019-05-15T09:04:48.494Z,29.79
2019-05-15T09:05:48.285Z,29.38
2019-05-15T09:06:49.462Z,30.90
2019-05-15T09:07:48.457Z,28.97
2019-05-15T09:08:45.953Z,28.14
2019-05-15T09:09:45.975Z,27.74
2019-05-15T09:10:45.954Z,27.94
2019-05-15T09:11:48.168Z,27.53
2019-05-15T09:12:45.907Z,28.96
2019-05-15T09:13:45.902Z,28.25
2019-05-15T09:14:45.923Z,28.04
2019-05-15T09:15:48.121Z,27.84
2019-05-15T09:16:45.860Z,27.94
2019-05-15T09:17:48.605Z,28.64
2019-05-15T09:18:48.341Z,28.54
2019-05-15T09:19:48.021Z,28.54
2019-05-15T09:20:45.819Z,27.01
2019-05-15T09:21:45.813Z,27.83
2019-05-15T09:22:45.798Z,27.62
2019-05-15T09:23:45.797Z,28.13
2019-05-15T09:24:45.827Z,27.52
2019-05-15T09:25:48.929Z,26.59
2019-05-15T09:26:48.497Z,27.31
2019-05-15T09:27:45.760Z,27.71
2019-05-15T09:28:45.733Z,28.83
2019-05-15T09:29:48.273Z,28.12
2019-05-15T09:30:48.125Z,27.92
2019-05-15T09:31:48.137Z,28.52
2019-05-15T09:32:48.142Z,27.20
2019-05-15T09:33:45.700Z,26.38
2019-05-15T09:34:53.950Z,26.58
2019-05-15T09:35:48.756Z,26.39
2019-05-15T09:36:48.413Z,26.38
2019-05-15T09:37:45.646Z,28.20
2019-05-15T09:38:45.625Z,26.38
2019-05-15T09:39:45.616Z,26.68
2019-05-15T09:40:46.658Z,27.90
2019-05-15T09:41:48.662Z,27.70
2019-05-15T09:42:45.585Z,28.71
2019-05-15T09:43:45.576Z,26.68
2019-05-15T09:44:45.652Z,25.96
2019-05-15T09:45:45.577Z,27.79
2019-05-15T09:46:45.594Z,27.28
2019-05-15T09:47:48.111Z,27.58
2019-05-15T09:48:50.482Z,27.89
2019-05-15T09:49:48.482Z,27.89
2019-05-15T09:50:45.504Z,29.11
2019-05-15T09:51:45.493Z,28.50
2019-05-15T09:52:45.508Z,29.51
2019-05-15T09:53:48.238Z,27.08
2019-05-15T09:54:45.486Z,27.06
2019-05-15T09:55:45.463Z,26.06
2019-05-15T09:56:49.108Z,25.87
2019-05-15T09:57:45.462Z,26.87
2019-05-15T09:58:45.414Z,26.57
2019-05-15T09:59:45.413Z,27.99
2019-05-15T10:00:50.832Z,26.77
2019-05-15T10:01:48.260Z,26.05
2019-05-15T10:02:48.321Z,27.17
2019-05-15T10:03:45.371Z,26.46
2019-05-15T10:04:45.359Z,26.97
2019-05-15T10:05:45.378Z,26.76
2019-05-15T10:06:45.369Z,26.15
2019-05-15T10:07:45.322Z,28.28
2019-05-15T10:08:45.306Z,26.57
2019-05-15T10:09:45.304Z,26.76
2019-05-15T10:10:45.321Z,26.26
2019-05-15T10:11:45.305Z,25.95
2019-05-15T10:12:45.317Z,25.54
2019-05-15T10:13:45.254Z,25.24
2019-05-15T10:14:45.249Z,26.25
2019-05-15T10:15:48.354Z,26.97
2019-05-15T10:16:48.112Z,26.05
2019-05-15T10:17:45.216Z,26.56
2019-05-15T10:18:45.198Z,26.46
2019-05-15T10:19:45.193Z,27.98
2019-05-15T10:20:45.176Z,26.95
2019-05-15T10:21:45.225Z,26.75
2019-05-15T10:22:45.160Z,26.54
2019-05-15T10:23:45.186Z,25.73
2019-05-15T10:24:45.149Z,25.73
2019-05-15T10:25:45.143Z,25.02
2019-05-15T10:26:45.121Z,24.52
2019-05-15T10:27:45.146Z,24.32
2019-05-15T10:28:45.093Z,24.20
2019-05-15T10:29:45.113Z,23.81
2019-05-15T10:30:45.129Z,24.20
2019-05-15T10:31:45.059Z,24.41
2019-05-15T10:32:45.090Z,25.32
2019-05-15T10:33:45.037Z,24.81
2019-05-15T10:34:45.075Z,24.61
2019-05-15T10:35:45.017Z,26.43
2019-05-15T10:36:45.050Z,25.31
2019-05-15T10:37:45.068Z,24.80
2019-05-15T10:38:45.097Z,24.09
2019-05-15T10:39:44.975Z,24.09
2019-05-15T10:41:00.070Z,24.19
2019-05-15T10:41:48.116Z,22.88
2019-05-15T10:42:44.993Z,23.48
2019-05-15T10:43:47.250Z,21.56
2019-05-15T10:44:45.925Z,21.04
2019-05-15T10:45:44.917Z,20.94
2019-05-15T10:46:44.908Z,20.03
2019-05-15T10:47:44.967Z,19.12
2019-05-15T10:48:44.897Z,17.20
2019-05-15T10:49:44.865Z,17.30
2019-05-15T10:50:44.877Z,18.62
2019-05-15T10:51:44.895Z,18.31
2019-05-15T10:52:44.840Z,19.01
2019-05-15T10:53:44.828Z,17.49
2019-05-15T10:54:44.810Z,18.00
2019-05-15T10:55:44.802Z,17.29
2019-05-15T10:56:44.865Z,17.18
2019-05-15T10:57:45.014Z,18.49
2019-05-15T10:58:44.779Z,17.18
2019-05-15T10:59:44.795Z,16.87
2019-05-15T11:00:44.802Z,16.27
2019-05-15T11:01:44.741Z,16.77
2019-05-15T11:02:44.737Z,16.67
2019-05-15T11:03:44.720Z,17.58
2019-05-15T11:04:44.738Z,17.29
2019-05-15T11:05:45.787Z,18.70
2019-05-15T11:06:44.715Z,18.09
2019-05-15T11:07:44.695Z,18.80
2019-05-15T11:08:44.673Z,19.29
2019-05-15T11:09:44.650Z,18.59
2019-05-15T11:10:44.680Z,16.87
2019-05-15T11:11:44.650Z,16.96
2019-05-15T11:12:44.620Z,15.76
2019-05-15T11:13:44.609Z,17.18
2019-05-15T11:14:44.599Z,17.57
2019-05-15T11:15:44.617Z,17.38
2019-05-15T11:16:44.580Z,16.86
2019-05-15T11:17:44.624Z,17.47
2019-05-15T11:18:44.556Z,18.18
2019-05-15T11:19:44.544Z,18.48
2019-05-15T11:20:44.559Z,18.79
2019-05-15T11:21:44.538Z,21.11
2019-05-15T11:22:44.740Z,18.18
2019-05-15T11:23:44.501Z,18.29
2019-05-15T11:24:44.525Z,18.38
2019-05-15T11:25:44.477Z,20.71
2019-05-15T11:26:44.483Z,20.00
2019-05-15T11:27:44.483Z,19.80
2019-05-15T11:28:44.452Z,18.38
2019-05-15T11:29:44.444Z,18.99
2019-05-15T11:30:44.435Z,18.49
2019-05-15T11:31:44.444Z,18.99
2019-05-15T11:32:44.403Z,19.59
2019-05-15T11:33:44.394Z,20.81
2019-05-15T11:34:44.431Z,19.29
2019-05-15T11:35:58.167Z,20.71
2019-05-15T11:36:45.360Z,20.91
2019-05-15T11:37:46.600Z,21.32
2019-05-15T11:38:44.339Z,21.32
2019-05-15T11:39:46.506Z,21.22
2019-05-15T11:40:44.353Z,18.27
2019-05-15T11:41:44.318Z,19.50
2019-05-15T11:42:44.303Z,19.80
2019-05-15T11:43:44.291Z,20.00
2019-05-15T11:44:44.317Z,20.81
2019-05-15T11:45:44.273Z,21.82
2019-05-15T11:46:44.263Z,21.11
2019-05-15T11:47:44.288Z,20.71
2019-05-15T11:48:44.265Z,21.01
2019-05-15T11:49:44.275Z,21.01
2019-05-15T11:50:44.221Z,19.80
2019-05-15T11:51:44.210Z,20.91
2019-05-15T11:52:44.214Z,20.61
2019-05-15T11:53:44.196Z,21.12
2019-05-15T11:54:44.204Z,20.21
2019-05-15T11:55:44.199Z,20.62
2019-05-15T11:56:44.159Z,21.33
2019-05-15T11:57:47.592Z,22.64
2019-05-15T11:58:45.135Z,21.94
2019-05-15T11:59:45.819Z,22.03
2019-05-15T12:00:44.149Z,22.33
2019-05-15T12:01:44.127Z,21.82
2019-05-15T12:02:44.108Z,21.32
2019-05-15T12:03:44.094Z,21.82
2019-05-15T12:04:44.067Z,21.22
2019-05-15T12:05:44.091Z,21.62
2019-05-15T12:06:58.168Z,21.63
2019-05-15T12:07:47.896Z,21.22
2019-05-15T12:08:44.033Z,20.42
2019-05-15T12:09:44.025Z,20.52
2019-05-15T12:10:44.004Z,20.42
2019-05-15T12:11:44.046Z,20.42
2019-05-15T12:12:43.993Z,20.01
2019-05-15T12:13:43.983Z,20.94
2019-05-15T12:14:43.970Z,20.53
2019-05-15T12:15:44.014Z,21.73
2019-05-15T12:17:00.948Z,21.73
2019-05-15T12:17:44.947Z,20.72
2019-05-15T12:18:43.981Z,21.12
2019-05-15T12:19:43.908Z,20.42
2019-05-15T12:20:43.897Z,21.73
2019-05-15T12:21:43.934Z,21.73
2019-05-15T12:22:43.922Z,20.92
2019-05-15T12:23:43.880Z,21.83
2019-05-15T12:24:43.890Z,20.82
2019-05-15T12:25:43.864Z,22.73
2019-05-15T12:26:43.850Z,20.81
2019-05-15T12:27:43.987Z,20.00
2019-05-15T12:28:43.819Z,19.90
2019-05-15T12:29:43.821Z,20.91
2019-05-15T12:30:43.829Z,21.32
2019-05-15T12:31:43.829Z,21.62
2019-05-15T12:32:43.820Z,22.23
2019-05-15T12:33:43.764Z,22.02
2019-05-15T12:34:43.806Z,20.91
2019-05-15T12:35:43.759Z,20.70
2019-05-15T12:37:44.752Z,19.79
2019-05-15T12:38:43.714Z,20.09
2019-05-15T12:39:43.731Z,19.59
2019-05-15T12:59:44.858Z,20.79
2019-05-15T13:00:43.777Z,19.68
2019-05-15T13:01:43.493Z,18.57
2019-05-15T13:02:43.506Z,19.78
2019-05-15T13:03:43.478Z,20.79
2019-05-15T13:04:43.449Z,20.69
2019-05-15T13:05:43.450Z,21.09
2019-05-15T13:06:49.406Z,19.67
2019-05-15T13:07:44.455Z,20.48
2019-05-15T13:08:43.427Z,20.78
2019-05-15T13:09:43.399Z,20.68
2019-05-15T13:10:43.422Z,20.98
2019-05-15T13:11:43.394Z,20.78
2019-05-15T13:12:59.333Z,20.48
2019-05-15T13:13:44.351Z,20.68
2019-05-15T13:14:43.366Z,21.69
2019-05-15T13:15:43.372Z,19.78
2019-05-15T13:16:43.328Z,19.07
2019-05-15T13:17:43.305Z,18.56
2019-05-15T13:18:43.303Z,19.78
2019-05-15T13:19:43.289Z,20.68
2019-05-15T13:20:43.298Z,20.78
2019-05-15T13:21:43.362Z,21.09
2019-05-15T13:22:43.268Z,19.57
2019-05-15T13:23:43.278Z,20.28
2019-05-15T13:24:43.277Z,20.98
2019-05-15T13:25:43.344Z,20.88
2019-05-15T13:26:43.471Z,19.78
2019-05-15T13:27:43.219Z,18.96
2019-05-15T13:28:43.191Z,19.17
2019-05-15T13:29:43.200Z,20.58
2019-05-15T13:30:43.273Z,21.99
2019-05-15T13:31:43.204Z,22.19
2019-05-15T13:32:43.148Z,20.77
2019-05-15T13:33:43.172Z,20.37
2019-05-15T13:34:43.139Z,21.08
2019-05-15T13:35:45.573Z,20.77
2019-05-15T13:36:43.157Z,20.47
2019-05-15T13:37:43.100Z,20.87
2019-05-15T13:38:43.132Z,20.67
2019-05-15T13:39:43.150Z,21.08
2019-05-15T13:40:43.065Z,19.76
2019-05-15T13:41:43.090Z,20.66
2019-05-15T13:42:43.093Z,21.17
2019-05-15T13:43:43.034Z,21.06
2019-05-15T13:44:43.048Z,20.87
2019-05-15T13:45:43.014Z,21.57
2019-05-15T13:46:43.012Z,21.97
2019-05-15T13:47:43.031Z,22.19
2019-05-15T13:48:43.057Z,21.26
2019-05-15T13:49:43.003Z,21.26
2019-05-15T13:50:42.981Z,21.26
2019-05-15T13:51:42.980Z,20.46
2019-05-15T13:52:42.954Z,20.26
2019-05-15T13:53:43.005Z,22.07
2019-05-15T13:54:42.927Z,22.88
2019-05-15T13:55:43.175Z,22.27
2019-05-15T13:56:42.924Z,21.76
2019-05-15T13:57:42.886Z,21.47
2019-05-15T13:58:42.921Z,20.65
2019-05-15T13:59:42.873Z,20.86
2019-05-15T14:00:42.871Z,21.46
2019-05-15T14:01:42.844Z,21.57
2019-05-15T14:02:42.873Z,21.86
2019-05-15T14:03:42.832Z,21.46
2019-05-15T14:04:42.849Z,20.15
2019-05-15T14:05:45.097Z,21.66
2019-05-15T14:06:42.823Z,21.37
2019-05-15T14:07:49.377Z,20.86
2019-05-15T14:08:43.800Z,19.45
2019-05-15T14:09:44.638Z,18.94
2019-05-15T14:10:42.800Z,21.26
2019-05-15T14:11:43.795Z,21.96
2019-05-15T14:12:42.728Z,21.46
2019-05-15T14:13:42.846Z,21.76
2019-05-15T14:14:42.703Z,22.16
2019-05-15T14:15:42.729Z,22.56
2019-05-15T14:16:43.176Z,22.27
2019-05-15T14:17:42.689Z,20.86
2019-05-15T14:18:42.766Z,20.25
2019-05-15T14:19:42.673Z,21.26
2019-05-15T14:20:42.704Z,20.86
2019-05-15T14:21:42.833Z,20.75
2019-05-15T14:22:42.666Z,21.15
2019-05-15T14:23:42.885Z,21.86
2019-05-15T14:24:42.726Z,21.26
2019-05-15T14:25:42.617Z,21.36
2019-05-15T14:26:42.617Z,21.36
2019-05-15T14:27:42.868Z,21.15
2019-05-15T14:28:42.672Z,20.55
2019-05-15T14:29:42.657Z,21.26
2019-05-15T14:30:42.596Z,21.37
2019-05-15T14:31:42.557Z,22.17
2019-05-15T14:32:42.533Z,21.47
2019-05-15T14:33:42.513Z,20.86
2019-05-15T14:34:42.502Z,21.78
2019-05-15T14:35:42.522Z,22.38
2019-05-15T14:36:42.549Z,22.68
2019-05-15T14:37:42.479Z,23.49
2019-05-15T14:38:42.467Z,21.67
2019-05-15T14:39:42.464Z,21.26
2019-05-15T14:40:42.437Z,21.26
2019-05-15T14:41:42.969Z,21.77
2019-05-15T14:42:42.451Z,22.27
2019-05-15T14:43:42.542Z,21.97
2019-05-15T14:44:42.399Z,21.26
2019-05-15T14:45:42.408Z,21.47
2019-05-15T14:46:42.458Z,21.26
2019-05-15T14:47:42.366Z,21.57
2019-05-15T14:48:42.358Z,22.47
2019-05-15T14:49:45.059Z,21.77
2019-05-15T14:50:42.439Z,21.78
2019-05-15T14:51:42.327Z,22.28
2019-05-15T14:52:42.326Z,20.66
2019-05-15T14:53:42.313Z,22.79
2019-05-15T14:54:42.330Z,22.69
2019-05-15T14:55:44.241Z,23.69
2019-05-15T14:56:42.277Z,23.08
2019-05-15T14:57:42.260Z,23.58
2019-05-15T14:58:42.265Z,25.10
2019-05-15T14:59:42.289Z,25.10
2019-05-15T15:00:42.513Z,24.29
2019-05-15T15:01:42.234Z,24.18
2019-05-15T15:02:42.280Z,22.27
2019-05-15T15:03:42.304Z,20.86
2019-05-15T15:04:42.215Z,21.87
2019-05-15T15:05:42.179Z,20.97
2019-05-15T15:06:42.194Z,21.97
2019-05-15T15:07:42.176Z,22.58
2019-05-15T15:08:42.167Z,22.17
2019-05-15T15:09:42.135Z,23.08
2019-05-15T15:10:42.161Z,23.49
2019-05-15T15:11:42.119Z,22.47
2019-05-15T15:12:42.457Z,22.36
2019-05-15T15:13:43.248Z,22.16
2019-05-15T15:14:42.092Z,22.27
2019-05-15T15:15:42.416Z,22.78
2019-05-15T15:16:42.062Z,23.89
2019-05-15T15:17:42.060Z,23.18
2019-05-15T15:18:42.078Z,23.58
2019-05-15T15:19:42.032Z,25.30
2019-05-15T15:20:42.072Z,24.09
2019-05-15T15:21:42.040Z,24.49
2019-05-15T15:22:42.035Z,22.97
2019-05-15T15:23:41.998Z,22.36
2019-05-15T15:24:41.980Z,23.99
2019-05-15T15:25:41.969Z,23.97
2019-05-15T15:26:41.998Z,21.86
2019-05-15T15:27:41.989Z,21.96
2019-05-15T15:28:41.958Z,21.86
2019-05-15T15:29:41.995Z,22.17
2019-05-15T15:30:41.920Z,21.86
2019-05-15T15:31:41.944Z,23.27
2019-05-15T15:32:41.909Z,22.58
2019-05-15T15:33:41.908Z,22.77
2019-05-15T15:34:41.914Z,22.17
2019-05-15T15:35:41.872Z,22.56
2019-05-15T15:36:41.863Z,22.06
2019-05-15T15:37:41.868Z,22.58
2019-05-15T15:38:44.145Z,23.47
2019-05-15T15:39:41.823Z,23.47
2019-05-15T15:40:41.813Z,23.77
2019-05-15T15:41:41.803Z,24.48
2019-05-15T15:42:41.865Z,21.76
2019-05-15T15:43:41.847Z,22.87
2019-05-15T15:44:41.795Z,23.07
2019-05-15T15:45:41.763Z,22.88
2019-05-15T15:46:41.809Z,21.87
2019-05-15T15:47:41.889Z,21.67
2019-05-15T15:48:41.798Z,22.67
2019-05-15T15:49:41.754Z,23.27
2019-05-15T15:50:41.819Z,23.57
2019-05-15T15:51:41.710Z,22.98
2019-05-15T15:52:41.743Z,24.08
2019-05-15T15:53:41.729Z,23.07
2019-05-15T15:54:41.669Z,23.47
2019-05-15T15:55:41.661Z,22.56
2019-05-15T15:56:42.290Z,22.27
2019-05-15T15:57:41.678Z,22.27
2019-05-15T15:58:41.708Z,23.07
2019-05-15T15:59:42.639Z,22.77
2019-05-15T16:00:41.643Z,22.36
2019-05-15T16:01:41.597Z,23.47
2019-05-15T16:02:42.692Z,23.27
2019-05-15T16:03:41.629Z,22.97
2019-05-15T16:04:41.566Z,22.06
2019-05-15T16:05:41.665Z,22.67
2019-05-15T16:06:41.572Z,21.76
2019-05-15T16:07:43.493Z,24.08
2019-05-15T16:08:52.178Z,23.86
2019-05-15T16:09:42.589Z,22.56
2019-05-15T16:10:41.531Z,21.65
2019-05-15T16:11:41.608Z,21.96
2019-05-15T16:12:41.494Z,23.46
2019-05-15T16:13:41.536Z,21.85
2019-05-15T16:14:41.991Z,23.07
2019-05-15T16:15:42.192Z,22.16
2019-05-15T16:16:41.468Z,21.65
2019-05-15T16:17:41.568Z,22.16
2019-05-15T16:18:41.563Z,22.66
2019-05-15T16:19:41.801Z,21.55
2019-05-15T16:20:42.276Z,22.25
2019-05-15T16:21:41.418Z,22.86
2019-05-15T16:22:43.111Z,23.16
2019-05-15T16:23:42.406Z,22.16
2019-05-15T16:24:41.617Z,23.06
2019-05-15T16:25:41.389Z,22.56
2019-05-15T16:26:41.420Z,23.68
2019-05-15T16:27:41.929Z,24.07
2019-05-15T16:28:41.315Z,24.17
2019-05-15T16:29:41.340Z,23.26
2019-05-15T16:30:51.106Z,22.66
2019-05-15T16:31:44.061Z,23.36
2019-05-15T16:32:42.450Z,22.45
2019-05-15T16:33:41.261Z,23.06
2019-05-15T16:34:41.255Z,23.05
2019-05-15T16:35:43.018Z,22.86
2019-05-15T16:36:41.417Z,22.24
2019-05-15T16:37:41.235Z,21.75
2019-05-15T16:38:42.346Z,21.75
2019-05-15T16:39:41.324Z,22.36
2019-05-15T16:40:41.214Z,22.44
2019-05-15T16:41:41.276Z,24.36
2019-05-15T16:42:41.514Z,23.35
2019-05-15T16:43:41.174Z,23.15
2019-05-15T16:44:41.150Z,22.63
2019-05-15T16:45:41.281Z,24.35
2019-05-15T16:46:41.175Z,21.73
2019-05-15T16:47:41.556Z,21.63
2019-05-15T16:48:41.115Z,22.44
2019-05-15T16:49:41.223Z,21.73
2019-05-15T16:50:41.129Z,21.62
2019-05-15T16:51:41.133Z,22.12
2019-05-15T16:52:41.976Z,21.82
2019-05-15T16:53:41.278Z,22.13
2019-05-15T16:54:41.208Z,21.82
2019-05-15T16:55:41.051Z,21.82
2019-05-15T16:56:41.083Z,21.51
2019-05-15T16:57:41.043Z,22.42
2019-05-15T16:58:41.000Z,23.13
2019-05-15T16:59:41.089Z,22.32
2019-05-15T17:00:41.000Z,22.72
2019-05-15T17:01:40.964Z,22.81
2019-05-15T17:02:40.998Z,22.71
2019-05-15T17:03:40.944Z,23.11
2019-05-15T17:04:40.976Z,22.81
2019-05-15T17:05:42.474Z,21.81
2019-05-15T17:06:40.913Z,22.81
2019-05-15T17:07:40.901Z,22.91
2019-05-15T17:08:40.943Z,23.00
2019-05-15T17:09:40.879Z,22.20
2019-05-15T17:10:40.872Z,22.10
2019-05-15T17:11:40.881Z,22.50
2019-05-15T17:12:40.851Z,22.50
2019-05-15T17:13:40.871Z,22.71
2019-05-15T17:14:40.895Z,22.39
2019-05-15T17:15:40.814Z,22.89
2019-05-15T17:16:40.829Z,21.69
2019-05-15T17:17:40.799Z,22.18
2019-05-15T17:18:48.675Z,21.39
2019-05-15T17:19:40.777Z,21.17
2019-05-15T17:20:40.958Z,21.19
2019-05-15T17:21:40.833Z,21.17
2019-05-15T17:22:40.824Z,22.18
2019-05-15T17:23:40.816Z,21.17
2019-05-15T17:24:40.780Z,21.28
2019-05-15T17:25:40.706Z,21.37
2019-05-15T17:26:40.727Z,21.58
2019-05-15T17:27:40.684Z,21.17
2019-05-15T17:28:40.735Z,21.17
2019-05-15T17:29:40.685Z,21.17
2019-05-15T17:30:40.648Z,21.17
2019-05-15T17:31:40.647Z,21.48
2019-05-15T17:32:40.961Z,21.28
2019-05-15T17:33:40.660Z,22.08
2019-05-15T17:34:40.651Z,21.37
2019-05-15T17:35:40.596Z,21.17
2019-05-15T17:36:40.587Z,21.37
2019-05-15T17:37:40.581Z,21.17
2019-05-15T17:38:40.581Z,22.08
2019-05-15T17:39:41.737Z,21.68
2019-05-15T17:40:40.544Z,22.38
2019-05-15T17:41:40.532Z,22.18
2019-05-15T17:42:40.531Z,22.78
2019-05-15T17:43:40.512Z,21.88
2019-05-15T17:44:40.562Z,21.99
2019-05-15T17:45:40.503Z,21.79
2019-05-15T17:46:40.494Z,21.89
2019-05-15T17:47:40.830Z,21.79
2019-05-15T17:48:40.484Z,22.79
2019-05-15T17:49:40.488Z,22.79
2019-05-15T17:50:48.649Z,22.29
2019-05-15T17:51:44.491Z,22.29
2019-05-15T17:52:40.416Z,22.39
2019-05-15T17:53:40.412Z,22.19
2019-05-15T17:54:40.487Z,21.99
2019-05-15T17:55:40.423Z,22.09
2019-05-15T17:56:40.386Z,21.69
2019-05-15T17:57:40.365Z,21.29
2019-05-15T17:58:40.365Z,21.69
2019-05-15T17:59:40.391Z,22.00
2019-05-15T18:00:40.379Z,22.71
2019-05-15T18:01:40.436Z,22.71
2019-05-15T18:02:40.339Z,22.80
2019-05-15T18:03:40.329Z,22.40
2019-05-15T18:04:40.323Z,22.40
2019-05-15T18:05:40.284Z,22.79
2019-05-15T18:06:40.279Z,23.50
2019-05-15T18:07:40.304Z,23.50
2019-05-15T18:08:40.314Z,22.60
2019-05-15T18:09:50.279Z,22.71
2019-05-15T18:10:41.225Z,23.22
2019-05-15T18:11:40.213Z,24.12
2019-05-15T18:12:40.248Z,23.92
2019-05-15T18:13:40.202Z,24.52
2019-05-15T18:14:40.185Z,24.12
2019-05-15T18:15:40.216Z,24.32
2019-05-15T18:16:40.174Z,24.02
2019-05-15T18:17:41.484Z,24.62
2019-05-15T18:18:40.142Z,23.82
2019-05-15T18:19:40.134Z,24.02
2019-05-15T18:20:40.153Z,24.03
2019-05-15T18:21:40.121Z,24.23
2019-05-15T18:22:40.108Z,25.04
2019-05-15T18:23:40.088Z,24.43
2019-05-15T18:24:40.112Z,24.95
2019-05-15T18:25:40.081Z,24.85
2019-05-15T18:26:40.067Z,24.65
2019-05-15T18:27:40.051Z,24.56
2019-05-15T18:28:40.041Z,24.46
2019-05-15T18:29:40.929Z,24.66
2019-05-15T18:30:40.018Z,24.67
2019-05-15T18:31:40.007Z,24.77
2019-05-15T18:32:40.001Z,25.48
2019-05-15T18:33:53.064Z,25.38
2019-05-15T18:34:41.106Z,25.49
2019-05-15T18:35:39.989Z,25.29
2019-05-15T18:36:39.988Z,25.89
2019-05-15T18:37:39.936Z,26.21
2019-05-15T18:38:39.967Z,25.81
2019-05-15T18:39:39.915Z,25.81
2019-05-15T18:40:39.932Z,25.60
2019-05-15T18:41:39.891Z,26.31
2019-05-15T18:42:39.886Z,26.71
2019-05-15T18:43:39.896Z,26.62
2019-05-15T18:44:39.873Z,26.32
2019-05-15T18:45:39.851Z,26.52
2019-05-15T18:46:39.838Z,26.72
2019-05-15T18:47:39.847Z,26.82
2019-05-15T18:48:39.851Z,26.42
2019-05-15T18:49:39.812Z,26.52
2019-05-15T18:50:39.797Z,27.44
2019-05-15T18:51:39.792Z,27.44
2019-05-15T18:52:39.788Z,27.44
2019-05-15T18:53:39.807Z,27.86
2019-05-15T18:54:39.753Z,27.86
2019-05-15T18:55:39.771Z,27.45
2019-05-15T18:56:39.740Z,27.66
2019-05-15T18:57:39.797Z,28.47
2019-05-15T18:58:39.827Z,27.66
2019-05-15T18:59:39.739Z,27.67
2019-05-15T19:00:40.104Z,27.77
2019-05-15T19:01:39.704Z,28.17
2019-05-15T19:02:39.802Z,27.97
2019-05-15T19:03:39.701Z,28.38
2019-05-15T19:04:39.688Z,28.59
2019-05-15T19:05:39.646Z,28.59
2019-05-15T19:06:39.641Z,28.29
2019-05-15T19:07:39.621Z,28.69
2019-05-15T19:08:39.609Z,29.20
2019-05-15T19:09:39.635Z,28.69
2019-05-15T19:10:39.604Z,28.69
2019-05-15T19:11:39.577Z,29.40
2019-05-15T19:12:39.637Z,28.69
2019-05-15T19:13:39.585Z,28.00